الصفحة الرئيسية
METAR-TAF:

METAR-TAF

مطار :

مطار كوبنهاغن

كوبنهاغن, الدنمارك

دائرة عرض: 55-37N, خط طول: 012-39E, ارتفاع: 5 متر

مراقبة الطقس الحالي

تاريخ ووقت الإصدار 9 دقيقة قبل الساعة 11:20UTC
ريح 6 عقدة من الجنوب/الجنوب الغربي, الاتجاه يتراوح بين الجنوب و الجنوب الغربي
درجة الحرارة 22°درجة مئوية
الرطوبة 43%
ضغط 1028 hPa
الرؤية 10 كم أو أكثر
الغيوم لا تقل 1500 م ولا وجود لمزنة ركامية السحاب الأسود

METAR: EKCH 241120Z 20006KT 170V230 CAVOK 22/09 Q1028 NOSIG

زمن: 13:29 (11:29 UTC)

توقعات

تاريخ ووقت الإصدار 6ساعات و 32 دقيقة قبل الساعة 04:57UTC
التوقعات صالحة من24 الساعة 06 UTC إلى 25 الساعة 06 UTC
ريح 5 عقدة من الشرق/الجنوب الشرقي
الرؤية 10 كم أو أكثر
الغيوم لا تقل 1500 م ولا وجود لمزنة ركامية السحاب الأسود
أصبح
من 24 الساعة 09 UTC إلى 24 الساعة 12 UTC
ريح 10 عقدة من الجنوب
أصبح
من 24 الساعة 14 UTC إلى 24 الساعة 17 UTC
ريح 10 عقدة من الشرق

TAF: EKCH 240457Z 2406/2506 12005KT CAVOK BECMG 2409/2412 19010KT BECMG 2414/2417 08010KT

أرصاد الطقس والتوقعات من أكثر من 4000 مطار (تقارير الطقس للمطار METAR والتنبؤ بالطقس بالمطارTAF).

المحطات المتاحة هي النقط الصفراء والحمراء على الخريطة.

حرك المؤشر فوق النقطة لمعرفة اسم المحطة.

ثم انقر لمعرفة أرصاد وتوقعات الطقس.

لتغيير الخارطة: اضغط على الأزرار الخضراء مع رمز الصليب الأسود للتكبير. على الزر الأخضر مع شرطة للتصغير، أو على الأسهم الخضراء للخرائط المجاورة.


METAR-TAF: